sensor_id;sensor_type;location;lat;lon;timestamp;P1;durP1;ratioP1;P2;durP2;ratioP2
8656;SDS011;4366;50.764;7.184;2023-02-04T00:03:40;8.67;;;2.67;;
8656;SDS011;4366;50.764;7.184;2023-02-04T00:08:41;7.27;;;2.57;;
8656;SDS011;4366;50.764;7.184;2023-02-04T00:13:43;7.93;;;2.63;;
8656;SDS011;4366;50.764;7.184;2023-02-04T00:18:45;7.67;;;2.40;;
8656;SDS011;4366;50.764;7.184;2023-02-04T00:23:46;6.20;;;2.83;;
8656;SDS011;4366;50.764;7.184;2023-02-04T00:28:48;7.83;;;3.00;;
8656;SDS011;4366;50.764;7.184;2023-02-04T00:33:50;7.67;;;2.20;;
8656;SDS011;4366;50.764;7.184;2023-02-04T00:38:52;9.27;;;2.70;;
8656;SDS011;4366;50.764;7.184;2023-02-04T00:43:53;11.70;;;3.10;;
8656;SDS011;4366;50.764;7.184;2023-02-04T00:48:55;6.63;;;2.67;;
8656;SDS011;4366;50.764;7.184;2023-02-04T00:53:56;4.60;;;2.80;;
8656;SDS011;4366;50.764;7.184;2023-02-04T00:58:59;7.67;;;2.50;;
8656;SDS011;4366;50.764;7.184;2023-02-04T01:04:01;8.60;;;2.77;;
8656;SDS011;4366;50.764;7.184;2023-02-04T01:09:02;7.77;;;2.77;;
8656;SDS011;4366;50.764;7.184;2023-02-04T01:14:04;13.37;;;2.77;;
8656;SDS011;4366;50.764;7.184;2023-02-04T01:19:06;10.53;;;2.60;;
8656;SDS011;4366;50.764;7.184;2023-02-04T01:24:08;9.70;;;2.73;;
8656;SDS011;4366;50.764;7.184;2023-02-04T01:29:30;6.93;;;2.77;;
8656;SDS011;4366;50.764;7.184;2023-02-04T01:34:31;6.30;;;2.83;;
8656;SDS011;4366;50.764;7.184;2023-02-04T01:39:33;12.43;;;3.37;;
8656;SDS011;4366;50.764;7.184;2023-02-04T01:44:35;8.57;;;2.73;;
8656;SDS011;4366;50.764;7.184;2023-02-04T01:49:36;6.47;;;2.73;;
8656;SDS011;4366;50.764;7.184;2023-02-04T01:54:38;11.00;;;2.80;;
8656;SDS011;4366;50.764;7.184;2023-02-04T01:59:42;11.43;;;3.40;;
8656;SDS011;4366;50.764;7.184;2023-02-04T02:04:44;11.87;;;3.00;;
8656;SDS011;4366;50.764;7.184;2023-02-04T02:09:47;13.20;;;2.53;;
8656;SDS011;4366;50.764;7.184;2023-02-04T02:14:48;6.23;;;2.57;;
8656;SDS011;4366;50.764;7.184;2023-02-04T02:19:50;15.30;;;3.00;;
8656;SDS011;4366;50.764;7.184;2023-02-04T02:24:52;10.57;;;3.17;;
8656;SDS011;4366;50.764;7.184;2023-02-04T02:29:53;6.67;;;2.40;;
8656;SDS011;4366;50.764;7.184;2023-02-04T02:34:55;7.80;;;2.40;;
8656;SDS011;4366;50.764;7.184;2023-02-04T02:39:57;8.27;;;2.67;;
8656;SDS011;4366;50.764;7.184;2023-02-04T02:44:58;8.80;;;2.83;;
8656;SDS011;4366;50.764;7.184;2023-02-04T02:50:00;6.83;;;2.53;;
8656;SDS011;4366;50.764;7.184;2023-02-04T02:55:02;9.87;;;2.90;;
8656;SDS011;4366;50.764;7.184;2023-02-04T03:00:11;6.10;;;2.67;;
8656;SDS011;4366;50.764;7.184;2023-02-04T03:05:39;7.10;;;2.30;;
8656;SDS011;4366;50.764;7.184;2023-02-04T03:10:44;13.67;;;2.83;;
8656;SDS011;4366;50.764;7.184;2023-02-04T03:15:46;8.77;;;2.33;;
8656;SDS011;4366;50.764;7.184;2023-02-04T03:20:49;9.33;;;2.47;;
8656;SDS011;4366;50.764;7.184;2023-02-04T03:25:51;7.90;;;2.57;;
8656;SDS011;4366;50.764;7.184;2023-02-04T03:30:56;11.93;;;2.60;;
8656;SDS011;4366;50.764;7.184;2023-02-04T03:35:58;11.33;;;3.07;;
8656;SDS011;4366;50.764;7.184;2023-02-04T03:41:01;6.67;;;2.30;;
8656;SDS011;4366;50.764;7.184;2023-02-04T03:46:02;10.13;;;2.67;;
8656;SDS011;4366;50.764;7.184;2023-02-04T03:51:04;8.30;;;2.63;;
8656;SDS011;4366;50.764;7.184;2023-02-04T03:56:06;8.87;;;2.50;;
8656;SDS011;4366;50.764;7.184;2023-02-04T04:01:08;8.13;;;2.53;;
8656;SDS011;4366;50.764;7.184;2023-02-04T04:06:09;10.93;;;2.67;;
8656;SDS011;4366;50.764;7.184;2023-02-04T04:11:11;8.40;;;2.87;;
8656;SDS011;4366;50.764;7.184;2023-02-04T04:16:13;5.90;;;2.73;;
8656;SDS011;4366;50.764;7.184;2023-02-04T04:21:14;9.23;;;2.37;;
8656;SDS011;4366;50.764;7.184;2023-02-04T04:26:16;8.07;;;2.33;;
8656;SDS011;4366;50.764;7.184;2023-02-04T04:31:18;9.87;;;3.20;;
8656;SDS011;4366;50.764;7.184;2023-02-04T04:36:21;8.50;;;2.87;;
8656;SDS011;4366;50.764;7.184;2023-02-04T04:41:23;12.57;;;3.13;;
8656;SDS011;4366;50.764;7.184;2023-02-04T04:46:26;10.07;;;3.20;;
8656;SDS011;4366;50.764;7.184;2023-02-04T04:51:27;10.50;;;2.70;;
8656;SDS011;4366;50.764;7.184;2023-02-04T04:56:32;9.33;;;2.67;;
8656;SDS011;4366;50.764;7.184;2023-02-04T05:01:33;10.40;;;3.13;;
8656;SDS011;4366;50.764;7.184;2023-02-04T05:06:35;11.00;;;3.43;;
8656;SDS011;4366;50.764;7.184;2023-02-04T05:11:37;4.47;;;3.17;;
8656;SDS011;4366;50.764;7.184;2023-02-04T05:16:40;7.03;;;3.47;;
8656;SDS011;4366;50.764;7.184;2023-02-04T05:21:41;6.27;;;2.93;;
8656;SDS011;4366;50.764;7.184;2023-02-04T05:26:43;8.73;;;3.93;;
8656;SDS011;4366;50.764;7.184;2023-02-04T05:31:45;10.00;;;3.10;;
8656;SDS011;4366;50.764;7.184;2023-02-04T05:36:46;10.20;;;3.47;;
8656;SDS011;4366;50.764;7.184;2023-02-04T05:41:48;7.93;;;3.30;;
8656;SDS011;4366;50.764;7.184;2023-02-04T05:46:50;10.87;;;3.73;;
8656;SDS011;4366;50.764;7.184;2023-02-04T05:51:51;9.43;;;3.67;;
8656;SDS011;4366;50.764;7.184;2023-02-04T05:56:53;5.53;;;3.00;;
8656;SDS011;4366;50.764;7.184;2023-02-04T06:01:55;10.73;;;3.47;;
8656;SDS011;4366;50.764;7.184;2023-02-04T06:06:56;9.97;;;3.70;;
8656;SDS011;4366;50.764;7.184;2023-02-04T06:11:58;10.23;;;3.30;;
8656;SDS011;4366;50.764;7.184;2023-02-04T06:17:00;10.60;;;3.60;;
8656;SDS011;4366;50.764;7.184;2023-02-04T06:22:02;8.23;;;3.53;;
8656;SDS011;4366;50.764;7.184;2023-02-04T06:27:03;10.73;;;3.43;;
8656;SDS011;4366;50.764;7.184;2023-02-04T06:32:06;6.03;;;2.80;;
8656;SDS011;4366;50.764;7.184;2023-02-04T06:37:08;5.47;;;3.03;;
8656;SDS011;4366;50.764;7.184;2023-02-04T06:42:11;10.90;;;3.20;;
8656;SDS011;4366;50.764;7.184;2023-02-04T06:47:12;5.63;;;2.97;;
8656;SDS011;4366;50.764;7.184;2023-02-04T06:52:14;10.53;;;3.50;;
8656;SDS011;4366;50.764;7.184;2023-02-04T06:57:16;11.77;;;3.00;;
8656;SDS011;4366;50.764;7.184;2023-02-04T07:02:17;9.60;;;2.80;;
8656;SDS011;4366;50.764;7.184;2023-02-04T07:07:19;5.20;;;2.77;;
8656;SDS011;4366;50.764;7.184;2023-02-04T07:12:22;11.20;;;2.90;;
8656;SDS011;4366;50.764;7.184;2023-02-04T07:17:23;10.63;;;3.30;;
8656;SDS011;4366;50.764;7.184;2023-02-04T07:22:25;8.07;;;3.08;;
8656;SDS011;4366;50.764;7.184;2023-02-04T07:27:27;13.87;;;4.37;;
8656;SDS011;4366;50.764;7.184;2023-02-04T07:32:29;7.10;;;3.07;;
8656;SDS011;4366;50.764;7.184;2023-02-04T07:37:33;5.10;;;2.77;;
8656;SDS011;4366;50.764;7.184;2023-02-04T07:42:35;8.20;;;3.70;;
8656;SDS011;4366;50.764;7.184;2023-02-04T07:47:43;8.83;;;3.40;;
8656;SDS011;4366;50.764;7.184;2023-02-04T07:52:45;7.53;;;2.67;;
8656;SDS011;4366;50.764;7.184;2023-02-04T07:57:47;9.40;;;3.03;;
8656;SDS011;4366;50.764;7.184;2023-02-04T08:02:48;8.93;;;3.00;;
8656;SDS011;4366;50.764;7.184;2023-02-04T08:07:50;7.00;;;2.90;;
8656;SDS011;4366;50.764;7.184;2023-02-04T08:12:52;8.90;;;3.03;;
8656;SDS011;4366;50.764;7.184;2023-02-04T08:17:53;7.23;;;2.67;;
8656;SDS011;4366;50.764;7.184;2023-02-04T08:22:55;7.60;;;3.33;;
8656;SDS011;4366;50.764;7.184;2023-02-04T08:27:57;9.03;;;2.90;;
8656;SDS011;4366;50.764;7.184;2023-02-04T08:32:59;13.13;;;2.80;;
8656;SDS011;4366;50.764;7.184;2023-02-04T08:38:00;14.13;;;3.30;;
8656;SDS011;4366;50.764;7.184;2023-02-04T08:43:02;9.57;;;3.03;;
8656;SDS011;4366;50.764;7.184;2023-02-04T08:48:04;11.30;;;4.20;;
8656;SDS011;4366;50.764;7.184;2023-02-04T08:53:07;11.90;;;3.30;;
8656;SDS011;4366;50.764;7.184;2023-02-04T08:58:08;10.87;;;3.50;;
8656;SDS011;4366;50.764;7.184;2023-02-04T09:03:10;9.10;;;4.33;;
8656;SDS011;4366;50.764;7.184;2023-02-04T09:08:12;12.90;;;3.70;;
8656;SDS011;4366;50.764;7.184;2023-02-04T09:13:13;18.93;;;5.43;;
8656;SDS011;4366;50.764;7.184;2023-02-04T09:18:15;13.60;;;3.97;;
8656;SDS011;4366;50.764;7.184;2023-02-04T09:23:19;11.37;;;4.30;;
8656;SDS011;4366;50.764;7.184;2023-02-04T09:28:21;11.13;;;4.67;;
8656;SDS011;4366;50.764;7.184;2023-02-04T09:33:23;13.40;;;3.77;;
8656;SDS011;4366;50.764;7.184;2023-02-04T09:38:24;12.70;;;3.80;;
8656;SDS011;4366;50.764;7.184;2023-02-04T09:43:29;12.50;;;4.40;;
8656;SDS011;4366;50.764;7.184;2023-02-04T09:48:32;16.23;;;4.80;;
8656;SDS011;4366;50.764;7.184;2023-02-04T09:53:34;14.07;;;4.30;;
8656;SDS011;4366;50.764;7.184;2023-02-04T09:58:36;15.23;;;4.20;;
8656;SDS011;4366;50.764;7.184;2023-02-04T10:03:38;12.70;;;5.60;;
8656;SDS011;4366;50.764;7.184;2023-02-04T10:08:47;18.40;;;5.27;;
8656;SDS011;4366;50.764;7.184;2023-02-04T10:13:50;14.50;;;4.73;;
8656;SDS011;4366;50.764;7.184;2023-02-04T10:18:55;11.00;;;4.50;;
8656;SDS011;4366;50.764;7.184;2023-02-04T10:24:00;13.50;;;4.93;;
8656;SDS011;4366;50.764;7.184;2023-02-04T10:29:05;15.17;;;5.67;;
8656;SDS011;4366;50.764;7.184;2023-02-04T10:39:16;11.33;;;4.77;;
8656;SDS011;4366;50.764;7.184;2023-02-04T10:49:31;11.73;;;5.03;;
8656;SDS011;4366;50.764;7.184;2023-02-04T10:54:34;11.97;;;4.93;;
8656;SDS011;4366;50.764;7.184;2023-02-04T10:59:38;13.03;;;6.23;;
8656;SDS011;4366;50.764;7.184;2023-02-04T11:04:40;16.70;;;5.57;;
8656;SDS011;4366;50.764;7.184;2023-02-04T11:09:42;14.50;;;5.80;;
8656;SDS011;4366;50.764;7.184;2023-02-04T11:14:53;15.03;;;5.00;;
8656;SDS011;4366;50.764;7.184;2023-02-04T11:19:58;12.37;;;5.70;;
8656;SDS011;4366;50.764;7.184;2023-02-04T11:25:02;10.90;;;5.07;;
8656;SDS011;4366;50.764;7.184;2023-02-04T11:30:05;15.47;;;4.97;;
8656;SDS011;4366;50.764;7.184;2023-02-04T11:40:27;14.37;;;5.70;;
8656;SDS011;4366;50.764;7.184;2023-02-04T11:45:31;14.40;;;5.03;;
8656;SDS011;4366;50.764;7.184;2023-02-04T11:50:35;16.63;;;5.77;;
8656;SDS011;4366;50.764;7.184;2023-02-04T11:55:44;13.47;;;4.80;;
8656;SDS011;4366;50.764;7.184;2023-02-04T12:00:49;13.10;;;4.67;;
8656;SDS011;4366;50.764;7.184;2023-02-04T12:05:51;16.77;;;5.13;;
8656;SDS011;4366;50.764;7.184;2023-02-04T12:10:59;12.90;;;4.33;;
8656;SDS011;4366;50.764;7.184;2023-02-04T12:16:06;14.43;;;4.83;;
8656;SDS011;4366;50.764;7.184;2023-02-04T12:21:08;12.00;;;4.83;;
8656;SDS011;4366;50.764;7.184;2023-02-04T12:26:12;17.80;;;5.30;;
8656;SDS011;4366;50.764;7.184;2023-02-04T12:31:14;15.53;;;3.97;;
8656;SDS011;4366;50.764;7.184;2023-02-04T12:36:16;9.20;;;4.07;;
8656;SDS011;4366;50.764;7.184;2023-02-04T12:41:18;11.80;;;4.10;;
8656;SDS011;4366;50.764;7.184;2023-02-04T12:46:20;12.13;;;4.40;;
8656;SDS011;4366;50.764;7.184;2023-02-04T12:51:22;13.43;;;4.73;;
8656;SDS011;4366;50.764;7.184;2023-02-04T12:56:24;10.03;;;4.43;;
8656;SDS011;4366;50.764;7.184;2023-02-04T13:01:25;12.10;;;4.33;;
8656;SDS011;4366;50.764;7.184;2023-02-04T13:06:27;12.83;;;4.30;;
8656;SDS011;4366;50.764;7.184;2023-02-04T13:11:29;9.43;;;4.43;;
8656;SDS011;4366;50.764;7.184;2023-02-04T13:16:31;16.00;;;5.17;;
8656;SDS011;4366;50.764;7.184;2023-02-04T13:21:33;13.63;;;4.83;;
8656;SDS011;4366;50.764;7.184;2023-02-04T13:26:35;13.13;;;5.43;;
8656;SDS011;4366;50.764;7.184;2023-02-04T13:31:36;10.00;;;5.30;;
8656;SDS011;4366;50.764;7.184;2023-02-04T13:36:38;12.13;;;5.43;;
8656;SDS011;4366;50.764;7.184;2023-02-04T13:41:40;10.47;;;4.87;;
8656;SDS011;4366;50.764;7.184;2023-02-04T13:46:41;8.23;;;4.83;;
8656;SDS011;4366;50.764;7.184;2023-02-04T13:51:43;10.73;;;5.67;;
8656;SDS011;4366;50.764;7.184;2023-02-04T13:56:45;11.30;;;4.70;;
8656;SDS011;4366;50.764;7.184;2023-02-04T14:01:46;11.30;;;4.73;;
8656;SDS011;4366;50.764;7.184;2023-02-04T14:06:48;12.63;;;4.33;;
8656;SDS011;4366;50.764;7.184;2023-02-04T14:11:50;11.23;;;5.07;;
8656;SDS011;4366;50.764;7.184;2023-02-04T14:16:52;9.77;;;5.10;;
8656;SDS011;4366;50.764;7.184;2023-02-04T14:21:54;10.73;;;4.93;;
8656;SDS011;4366;50.764;7.184;2023-02-04T14:26:56;12.93;;;4.30;;
8656;SDS011;4366;50.764;7.184;2023-02-04T14:31:57;6.00;;;3.90;;
8656;SDS011;4366;50.764;7.184;2023-02-04T14:37:00;7.93;;;4.60;;
8656;SDS011;4366;50.764;7.184;2023-02-04T14:42:02;13.80;;;4.47;;
8656;SDS011;4366;50.764;7.184;2023-02-04T14:47:05;8.30;;;4.47;;
8656;SDS011;4366;50.764;7.184;2023-02-04T14:52:06;9.90;;;4.53;;
8656;SDS011;4366;50.764;7.184;2023-02-04T14:57:10;10.43;;;4.97;;
8656;SDS011;4366;50.764;7.184;2023-02-04T15:02:12;12.23;;;5.47;;
8656;SDS011;4366;50.764;7.184;2023-02-04T15:07:17;9.73;;;4.83;;
8656;SDS011;4366;50.764;7.184;2023-02-04T15:12:18;11.87;;;5.80;;
8656;SDS011;4366;50.764;7.184;2023-02-04T15:17:20;8.30;;;4.80;;
8656;SDS011;4366;50.764;7.184;2023-02-04T15:22:21;9.17;;;4.97;;
8656;SDS011;4366;50.764;7.184;2023-02-04T15:27:23;8.27;;;4.83;;
8656;SDS011;4366;50.764;7.184;2023-02-04T15:32:26;8.77;;;4.60;;
8656;SDS011;4366;50.764;7.184;2023-02-04T15:37:27;8.87;;;5.10;;
8656;SDS011;4366;50.764;7.184;2023-02-04T15:42:29;10.30;;;4.83;;
8656;SDS011;4366;50.764;7.184;2023-02-04T15:47:31;5.20;;;4.33;;
8656;SDS011;4366;50.764;7.184;2023-02-04T15:52:32;13.93;;;4.93;;
8656;SDS011;4366;50.764;7.184;2023-02-04T15:57:34;8.37;;;4.90;;
8656;SDS011;4366;50.764;7.184;2023-02-04T16:02:37;11.03;;;4.83;;
8656;SDS011;4366;50.764;7.184;2023-02-04T16:07:39;12.60;;;4.63;;
8656;SDS011;4366;50.764;7.184;2023-02-04T16:12:41;9.53;;;5.20;;
8656;SDS011;4366;50.764;7.184;2023-02-04T16:17:43;13.07;;;6.10;;
8656;SDS011;4366;50.764;7.184;2023-02-04T16:22:44;12.60;;;6.67;;
8656;SDS011;4366;50.764;7.184;2023-02-04T16:27:46;15.30;;;7.07;;
8656;SDS011;4366;50.764;7.184;2023-02-04T16:32:48;12.17;;;6.73;;
8656;SDS011;4366;50.764;7.184;2023-02-04T16:37:50;16.13;;;7.10;;
8656;SDS011;4366;50.764;7.184;2023-02-04T16:42:52;10.90;;;7.20;;
8656;SDS011;4366;50.764;7.184;2023-02-04T16:47:53;14.97;;;6.70;;
8656;SDS011;4366;50.764;7.184;2023-02-04T16:52:55;10.33;;;6.13;;
8656;SDS011;4366;50.764;7.184;2023-02-04T16:57:57;11.10;;;6.80;;
8656;SDS011;4366;50.764;7.184;2023-02-04T17:02:59;13.07;;;7.17;;
8656;SDS011;4366;50.764;7.184;2023-02-04T17:08:01;19.10;;;8.63;;
8656;SDS011;4366;50.764;7.184;2023-02-04T17:13:03;14.87;;;8.50;;
8656;SDS011;4366;50.764;7.184;2023-02-04T17:18:05;11.77;;;7.47;;
8656;SDS011;4366;50.764;7.184;2023-02-04T17:23:07;13.93;;;7.27;;
8656;SDS011;4366;50.764;7.184;2023-02-04T17:28:08;14.63;;;7.40;;
8656;SDS011;4366;50.764;7.184;2023-02-04T17:33:10;11.93;;;7.10;;
8656;SDS011;4366;50.764;7.184;2023-02-04T17:38:12;16.47;;;7.87;;
8656;SDS011;4366;50.764;7.184;2023-02-04T17:43:13;12.00;;;8.17;;
8656;SDS011;4366;50.764;7.184;2023-02-04T17:48:15;15.53;;;8.60;;
8656;SDS011;4366;50.764;7.184;2023-02-04T17:53:18;13.80;;;7.57;;
8656;SDS011;4366;50.764;7.184;2023-02-04T17:58:21;15.23;;;7.67;;
8656;SDS011;4366;50.764;7.184;2023-02-04T18:03:24;11.87;;;6.73;;
8656;SDS011;4366;50.764;7.184;2023-02-04T18:08:33;12.77;;;6.90;;
8656;SDS011;4366;50.764;7.184;2023-02-04T18:13:37;18.50;;;8.40;;
8656;SDS011;4366;50.764;7.184;2023-02-04T18:18:39;14.97;;;8.83;;
8656;SDS011;4366;50.764;7.184;2023-02-04T18:23:41;18.47;;;9.37;;
8656;SDS011;4366;50.764;7.184;2023-02-04T18:28:46;16.53;;;8.23;;
8656;SDS011;4366;50.764;7.184;2023-02-04T18:33:48;19.83;;;9.47;;
8656;SDS011;4366;50.764;7.184;2023-02-04T18:38:50;15.77;;;9.10;;
8656;SDS011;4366;50.764;7.184;2023-02-04T18:43:57;15.70;;;8.53;;
8656;SDS011;4366;50.764;7.184;2023-02-04T18:59:35;16.00;;;8.73;;
8656;SDS011;4366;50.764;7.184;2023-02-04T19:04:36;27.93;;;13.50;;
8656;SDS011;4366;50.764;7.184;2023-02-04T19:09:38;21.50;;;11.63;;
8656;SDS011;4366;50.764;7.184;2023-02-04T19:14:41;20.53;;;12.10;;
8656;SDS011;4366;50.764;7.184;2023-02-04T19:20:07;13.53;;;8.37;;
8656;SDS011;4366;50.764;7.184;2023-02-04T19:25:28;18.73;;;8.97;;
8656;SDS011;4366;50.764;7.184;2023-02-04T19:30:38;20.47;;;8.30;;
8656;SDS011;4366;50.764;7.184;2023-02-04T19:35:43;16.80;;;8.53;;
8656;SDS011;4366;50.764;7.184;2023-02-04T19:40:48;14.83;;;7.77;;
8656;SDS011;4366;50.764;7.184;2023-02-04T19:45:53;16.10;;;7.60;;
8656;SDS011;4366;50.764;7.184;2023-02-04T19:50:55;14.30;;;7.73;;
8656;SDS011;4366;50.764;7.184;2023-02-04T19:55:56;18.57;;;8.20;;
8656;SDS011;4366;50.764;7.184;2023-02-04T20:01:00;18.63;;;9.23;;
8656;SDS011;4366;50.764;7.184;2023-02-04T20:06:13;26.70;;;13.00;;
8656;SDS011;4366;50.764;7.184;2023-02-04T20:27:25;17.40;;;10.53;;
8656;SDS011;4366;50.764;7.184;2023-02-04T20:32:43;25.87;;;13.43;;
8656;SDS011;4366;50.764;7.184;2023-02-04T20:37:53;27.40;;;15.20;;
8656;SDS011;4366;50.764;7.184;2023-02-04T20:48:00;24.07;;;12.43;;
8656;SDS011;4366;50.764;7.184;2023-02-04T20:58:38;17.83;;;11.50;;
8656;SDS011;4366;50.764;7.184;2023-02-04T21:03:43;20.20;;;11.40;;
8656;SDS011;4366;50.764;7.184;2023-02-04T21:08:46;18.73;;;11.07;;
8656;SDS011;4366;50.764;7.184;2023-02-04T21:13:50;17.40;;;10.40;;
8656;SDS011;4366;50.764;7.184;2023-02-04T21:18:52;18.23;;;10.47;;
8656;SDS011;4366;50.764;7.184;2023-02-04T21:23:54;12.37;;;9.30;;
8656;SDS011;4366;50.764;7.184;2023-02-04T21:28:56;18.20;;;10.40;;
8656;SDS011;4366;50.764;7.184;2023-02-04T21:33:58;18.20;;;8.93;;
8656;SDS011;4366;50.764;7.184;2023-02-04T21:39:00;16.27;;;9.80;;
8656;SDS011;4366;50.764;7.184;2023-02-04T21:44:02;19.23;;;10.07;;
8656;SDS011;4366;50.764;7.184;2023-02-04T21:49:03;21.93;;;10.47;;
8656;SDS011;4366;50.764;7.184;2023-02-04T21:54:05;17.30;;;9.77;;
8656;SDS011;4366;50.764;7.184;2023-02-04T21:59:07;19.37;;;10.60;;
8656;SDS011;4366;50.764;7.184;2023-02-04T22:04:09;16.77;;;11.17;;
8656;SDS011;4366;50.764;7.184;2023-02-04T22:09:10;21.00;;;10.47;;
8656;SDS011;4366;50.764;7.184;2023-02-04T22:14:12;19.93;;;10.60;;
8656;SDS011;4366;50.764;7.184;2023-02-04T22:19:33;17.87;;;10.47;;
8656;SDS011;4366;50.764;7.184;2023-02-04T22:24:36;19.90;;;11.20;;
8656;SDS011;4366;50.764;7.184;2023-02-04T22:29:38;15.93;;;10.90;;
8656;SDS011;4366;50.764;7.184;2023-02-04T22:34:40;18.03;;;10.63;;
8656;SDS011;4366;50.764;7.184;2023-02-04T22:39:41;21.43;;;11.07;;
8656;SDS011;4366;50.764;7.184;2023-02-04T22:44:43;19.10;;;10.77;;
8656;SDS011;4366;50.764;7.184;2023-02-04T22:49:45;17.53;;;10.00;;
8656;SDS011;4366;50.764;7.184;2023-02-04T22:54:46;18.63;;;11.10;;
8656;SDS011;4366;50.764;7.184;2023-02-04T22:59:48;16.83;;;11.27;;
8656;SDS011;4366;50.764;7.184;2023-02-04T23:04:50;17.07;;;10.67;;
8656;SDS011;4366;50.764;7.184;2023-02-04T23:09:51;17.17;;;10.63;;
8656;SDS011;4366;50.764;7.184;2023-02-04T23:14:53;20.07;;;10.63;;
8656;SDS011;4366;50.764;7.184;2023-02-04T23:19:55;18.60;;;11.80;;
8656;SDS011;4366;50.764;7.184;2023-02-04T23:24:56;15.00;;;9.40;;
8656;SDS011;4366;50.764;7.184;2023-02-04T23:29:58;18.73;;;9.50;;
8656;SDS011;4366;50.764;7.184;2023-02-04T23:35:00;16.30;;;10.07;;
8656;SDS011;4366;50.764;7.184;2023-02-04T23:40:02;22.57;;;10.33;;
8656;SDS011;4366;50.764;7.184;2023-02-04T23:45:04;15.70;;;9.57;;
8656;SDS011;4366;50.764;7.184;2023-02-04T23:50:06;15.47;;;9.87;;
8656;SDS011;4366;50.764;7.184;2023-02-04T23:55:09;17.43;;;10.67;;
